sensor_id;sensor_type;location;lat;lon;timestamp;temperature;humidity
28837;DHT22;50669;50.982;11.022;2023-11-19T00:01:24;16.90;75.20
28837;DHT22;50669;50.982;11.022;2023-11-19T00:03:50;16.90;75.20
28837;DHT22;50669;50.982;11.022;2023-11-19T00:06:18;16.90;75.20
28837;DHT22;50669;50.982;11.022;2023-11-19T00:08:44;16.90;75.10
28837;DHT22;50669;50.982;11.022;2023-11-19T00:11:09;16.90;75.20
28837;DHT22;50669;50.982;11.022;2023-11-19T00:13:36;16.90;75.20
28837;DHT22;50669;50.982;11.022;2023-11-19T00:16:02;16.90;75.20
28837;DHT22;50669;50.982;11.022;2023-11-19T00:18:29;16.90;75.20
28837;DHT22;50669;50.982;11.022;2023-11-19T00:21:00;16.90;75.20
28837;DHT22;50669;50.982;11.022;2023-11-19T00:23:27;16.90;75.20
28837;DHT22;50669;50.982;11.022;2023-11-19T00:25:55;16.90;75.20
28837;DHT22;50669;50.982;11.022;2023-11-19T00:28:23;16.90;75.10
28837;DHT22;50669;50.982;11.022;2023-11-19T00:30:49;16.90;75.20
28837;DHT22;50669;50.982;11.022;2023-11-19T00:33:19;16.90;75.20
28837;DHT22;50669;50.982;11.022;2023-11-19T00:35:45;16.90;75.20
28837;DHT22;50669;50.982;11.022;2023-11-19T00:38:11;16.90;75.20
28837;DHT22;50669;50.982;11.022;2023-11-19T00:40:36;16.90;75.10
28837;DHT22;50669;50.982;11.022;2023-11-19T00:43:02;16.90;75.20
28837;DHT22;50669;50.982;11.022;2023-11-19T00:45:30;16.90;75.20
28837;DHT22;50669;50.982;11.022;2023-11-19T00:47:55;16.90;75.20
28837;DHT22;50669;50.982;11.022;2023-11-19T00:50:21;16.90;75.20
28837;DHT22;50669;50.982;11.022;2023-11-19T00:52:50;16.90;75.20
28837;DHT22;50669;50.982;11.022;2023-11-19T00:55:16;16.90;75.20
28837;DHT22;50669;50.982;11.022;2023-11-19T00:57:43;16.90;75.20
28837;DHT22;50669;50.982;11.022;2023-11-19T01:00:12;16.90;75.20
28837;DHT22;50669;50.982;11.022;2023-11-19T01:02:46;16.90;75.20
28837;DHT22;50669;50.982;11.022;2023-11-19T01:05:11;16.80;75.20
28837;DHT22;50669;50.982;11.022;2023-11-19T01:07:39;16.90;75.20
28837;DHT22;50669;50.982;11.022;2023-11-19T01:10:11;16.90;75.20
28837;DHT22;50669;50.982;11.022;2023-11-19T01:12:41;16.80;75.10
28837;DHT22;50669;50.982;11.022;2023-11-19T01:15:11;16.80;75.20
28837;DHT22;50669;50.982;11.022;2023-11-19T01:17:38;16.90;75.20
28837;DHT22;50669;50.982;11.022;2023-11-19T01:20:05;16.90;75.10
28837;DHT22;50669;50.982;11.022;2023-11-19T01:22:34;16.90;75.20
28837;DHT22;50669;50.982;11.022;2023-11-19T01:25:03;16.80;75.10
28837;DHT22;50669;50.982;11.022;2023-11-19T01:27:30;16.90;75.10
28837;DHT22;50669;50.982;11.022;2023-11-19T01:29:59;16.90;75.20
28837;DHT22;50669;50.982;11.022;2023-11-19T01:32:25;16.90;75.10
28837;DHT22;50669;50.982;11.022;2023-11-19T01:34:51;16.90;75.20
28837;DHT22;50669;50.982;11.022;2023-11-19T01:37:17;16.90;75.20
28837;DHT22;50669;50.982;11.022;2023-11-19T01:39:45;16.80;75.10
28837;DHT22;50669;50.982;11.022;2023-11-19T01:42:11;16.80;75.10
28837;DHT22;50669;50.982;11.022;2023-11-19T01:44:41;16.90;75.20
28837;DHT22;50669;50.982;11.022;2023-11-19T01:47:07;16.90;75.10
28837;DHT22;50669;50.982;11.022;2023-11-19T01:49:38;16.80;75.10
28837;DHT22;50669;50.982;11.022;2023-11-19T01:52:04;16.90;75.20
28837;DHT22;50669;50.982;11.022;2023-11-19T01:54:30;16.80;75.10
28837;DHT22;50669;50.982;11.022;2023-11-19T01:56:56;16.80;75.10
28837;DHT22;50669;50.982;11.022;2023-11-19T01:59:24;16.80;75.10
28837;DHT22;50669;50.982;11.022;2023-11-19T02:01:54;16.80;75.10
28837;DHT22;50669;50.982;11.022;2023-11-19T02:04:21;16.80;75.10
28837;DHT22;50669;50.982;11.022;2023-11-19T02:06:48;16.90;75.20
28837;DHT22;50669;50.982;11.022;2023-11-19T02:09:15;16.80;75.10
28837;DHT22;50669;50.982;11.022;2023-11-19T02:11:45;16.80;75.10
28837;DHT22;50669;50.982;11.022;2023-11-19T02:14:13;16.80;75.00
28837;DHT22;50669;50.982;11.022;2023-11-19T02:16:38;16.90;75.20
28837;DHT22;50669;50.982;11.022;2023-11-19T02:19:04;16.80;75.10
28837;DHT22;50669;50.982;11.022;2023-11-19T02:21:31;16.80;75.00
28837;DHT22;50669;50.982;11.022;2023-11-19T02:23:57;16.80;75.10
28837;DHT22;50669;50.982;11.022;2023-11-19T02:26:26;16.90;75.10
28837;DHT22;50669;50.982;11.022;2023-11-19T02:28:54;16.80;75.10
28837;DHT22;50669;50.982;11.022;2023-11-19T02:31:20;16.80;75.00
28837;DHT22;50669;50.982;11.022;2023-11-19T02:33:46;16.80;75.10
28837;DHT22;50669;50.982;11.022;2023-11-19T02:36:15;16.80;75.10
28837;DHT22;50669;50.982;11.022;2023-11-19T02:38:42;16.80;75.10
28837;DHT22;50669;50.982;11.022;2023-11-19T02:41:10;16.80;75.00
28837;DHT22;50669;50.982;11.022;2023-11-19T02:43:37;16.80;75.10
28837;DHT22;50669;50.982;11.022;2023-11-19T02:46:04;16.80;75.10
28837;DHT22;50669;50.982;11.022;2023-11-19T02:48:35;16.80;75.10
28837;DHT22;50669;50.982;11.022;2023-11-19T02:51:03;16.80;75.10
28837;DHT22;50669;50.982;11.022;2023-11-19T02:53:32;16.80;75.00
28837;DHT22;50669;50.982;11.022;2023-11-19T02:55:58;16.80;75.10
28837;DHT22;50669;50.982;11.022;2023-11-19T02:58:33;16.80;75.10
28837;DHT22;50669;50.982;11.022;2023-11-19T03:00:59;16.80;75.10
28837;DHT22;50669;50.982;11.022;2023-11-19T03:03:37;16.80;75.00
28837;DHT22;50669;50.982;11.022;2023-11-19T03:06:08;16.80;75.10
28837;DHT22;50669;50.982;11.022;2023-11-19T03:08:35;16.80;75.00
28837;DHT22;50669;50.982;11.022;2023-11-19T03:11:01;16.80;75.10
28837;DHT22;50669;50.982;11.022;2023-11-19T03:13:29;16.80;75.10
28837;DHT22;50669;50.982;11.022;2023-11-19T03:15:55;16.80;75.00
28837;DHT22;50669;50.982;11.022;2023-11-19T03:18:21;16.80;75.10
28837;DHT22;50669;50.982;11.022;2023-11-19T03:20:48;16.80;75.10
28837;DHT22;50669;50.982;11.022;2023-11-19T03:23:15;16.80;75.10
28837;DHT22;50669;50.982;11.022;2023-11-19T03:25:40;16.80;75.00
28837;DHT22;50669;50.982;11.022;2023-11-19T03:28:11;16.80;75.10
28837;DHT22;50669;50.982;11.022;2023-11-19T03:30:42;16.80;75.10
28837;DHT22;50669;50.982;11.022;2023-11-19T03:33:07;16.80;75.00
28837;DHT22;50669;50.982;11.022;2023-11-19T03:35:36;16.80;75.00
28837;DHT22;50669;50.982;11.022;2023-11-19T03:38:01;16.80;75.00
28837;DHT22;50669;50.982;11.022;2023-11-19T03:40:29;16.80;75.00
28837;DHT22;50669;50.982;11.022;2023-11-19T03:43:00;16.80;75.00
28837;DHT22;50669;50.982;11.022;2023-11-19T03:45:26;16.80;75.00
28837;DHT22;50669;50.982;11.022;2023-11-19T03:47:51;16.80;75.00
28837;DHT22;50669;50.982;11.022;2023-11-19T03:50:17;16.80;75.00
28837;DHT22;50669;50.982;11.022;2023-11-19T03:52:46;16.80;75.00
28837;DHT22;50669;50.982;11.022;2023-11-19T03:55:11;16.80;75.80
28837;DHT22;50669;50.982;11.022;2023-11-19T03:57:38;16.80;75.00
28837;DHT22;50669;50.982;11.022;2023-11-19T04:00:04;16.80;75.00
28837;DHT22;50669;50.982;11.022;2023-11-19T04:02:40;16.80;75.00
28837;DHT22;50669;50.982;11.022;2023-11-19T04:05:10;16.80;75.00
28837;DHT22;50669;50.982;11.022;2023-11-19T04:07:38;16.80;75.00
28837;DHT22;50669;50.982;11.022;2023-11-19T04:10:04;16.80;75.00
28837;DHT22;50669;50.982;11.022;2023-11-19T04:12:30;16.80;75.00
28837;DHT22;50669;50.982;11.022;2023-11-19T04:14:55;16.80;75.00
28837;DHT22;50669;50.982;11.022;2023-11-19T04:17:21;16.80;75.00
28837;DHT22;50669;50.982;11.022;2023-11-19T04:19:50;16.80;75.00
28837;DHT22;50669;50.982;11.022;2023-11-19T04:22:16;16.80;75.00
28837;DHT22;50669;50.982;11.022;2023-11-19T04:24:44;16.80;75.00
28837;DHT22;50669;50.982;11.022;2023-11-19T04:27:11;16.80;75.00
28837;DHT22;50669;50.982;11.022;2023-11-19T04:29:36;16.80;75.00
28837;DHT22;50669;50.982;11.022;2023-11-19T04:32:02;16.80;75.10
28837;DHT22;50669;50.982;11.022;2023-11-19T04:34:30;16.80;75.00
28837;DHT22;50669;50.982;11.022;2023-11-19T04:36:56;16.80;75.00
28837;DHT22;50669;50.982;11.022;2023-11-19T04:39:24;16.80;75.00
28837;DHT22;50669;50.982;11.022;2023-11-19T04:41:49;16.80;75.00
28837;DHT22;50669;50.982;11.022;2023-11-19T04:44:20;16.80;75.00
28837;DHT22;50669;50.982;11.022;2023-11-19T04:46:51;16.80;75.00
28837;DHT22;50669;50.982;11.022;2023-11-19T04:49:16;16.80;75.00
28837;DHT22;50669;50.982;11.022;2023-11-19T04:51:46;16.80;75.80
28837;DHT22;50669;50.982;11.022;2023-11-19T04:54:12;16.80;75.00
28837;DHT22;50669;50.982;11.022;2023-11-19T04:56:40;16.80;75.00
28837;DHT22;50669;50.982;11.022;2023-11-19T04:59:13;16.80;75.00
28837;DHT22;50669;50.982;11.022;2023-11-19T05:01:41;16.80;75.00
28837;DHT22;50669;50.982;11.022;2023-11-19T05:04:09;16.80;75.00
28837;DHT22;50669;50.982;11.022;2023-11-19T05:06:36;16.80;75.00
28837;DHT22;50669;50.982;11.022;2023-11-19T05:09:05;16.80;75.00
28837;DHT22;50669;50.982;11.022;2023-11-19T05:11:36;16.80;75.00
28837;DHT22;50669;50.982;11.022;2023-11-19T05:14:05;16.80;74.90
28837;DHT22;50669;50.982;11.022;2023-11-19T05:16:31;16.80;74.90
28837;DHT22;50669;50.982;11.022;2023-11-19T05:19:00;16.80;75.00
28837;DHT22;50669;50.982;11.022;2023-11-19T05:21:29;16.80;75.00
28837;DHT22;50669;50.982;11.022;2023-11-19T05:23:54;16.80;75.00
28837;DHT22;50669;50.982;11.022;2023-11-19T05:26:23;16.80;75.00
28837;DHT22;50669;50.982;11.022;2023-11-19T05:28:52;16.80;75.00
28837;DHT22;50669;50.982;11.022;2023-11-19T05:31:18;16.80;75.00
28837;DHT22;50669;50.982;11.022;2023-11-19T05:33:44;16.80;74.90
28837;DHT22;50669;50.982;11.022;2023-11-19T05:36:11;16.80;75.00
28837;DHT22;50669;50.982;11.022;2023-11-19T05:38:38;16.80;74.90
28837;DHT22;50669;50.982;11.022;2023-11-19T05:41:08;16.70;74.90
28837;DHT22;50669;50.982;11.022;2023-11-19T05:43:36;16.80;74.90
28837;DHT22;50669;50.982;11.022;2023-11-19T05:46:05;16.70;74.90
28837;DHT22;50669;50.982;11.022;2023-11-19T05:48:33;16.70;74.90
28837;DHT22;50669;50.982;11.022;2023-11-19T05:50:59;16.80;75.00
28837;DHT22;50669;50.982;11.022;2023-11-19T05:53:25;16.80;74.90
28837;DHT22;50669;50.982;11.022;2023-11-19T05:55:53;16.70;74.90
28837;DHT22;50669;50.982;11.022;2023-11-19T05:58:25;16.80;75.00
28837;DHT22;50669;50.982;11.022;2023-11-19T06:00:55;16.80;75.00
28837;DHT22;50669;50.982;11.022;2023-11-19T06:03:24;16.80;74.90
28837;DHT22;50669;50.982;11.022;2023-11-19T06:05:50;16.70;74.90
28837;DHT22;50669;50.982;11.022;2023-11-19T06:08:15;16.70;74.90
28837;DHT22;50669;50.982;11.022;2023-11-19T06:10:42;16.70;74.90
28837;DHT22;50669;50.982;11.022;2023-11-19T06:13:09;16.80;75.00
28837;DHT22;50669;50.982;11.022;2023-11-19T06:15:36;16.80;75.00
28837;DHT22;50669;50.982;11.022;2023-11-19T06:18:02;16.80;75.00
28837;DHT22;50669;50.982;11.022;2023-11-19T06:20:31;16.70;74.80
28837;DHT22;50669;50.982;11.022;2023-11-19T06:22:57;16.70;74.90
28837;DHT22;50669;50.982;11.022;2023-11-19T06:25:23;16.70;74.90
28837;DHT22;50669;50.982;11.022;2023-11-19T06:27:54;16.80;75.00
28837;DHT22;50669;50.982;11.022;2023-11-19T06:30:25;16.70;74.90
28837;DHT22;50669;50.982;11.022;2023-11-19T06:32:51;16.80;74.90
28837;DHT22;50669;50.982;11.022;2023-11-19T06:35:21;16.70;74.90
28837;DHT22;50669;50.982;11.022;2023-11-19T06:37:47;16.80;75.00
28837;DHT22;50669;50.982;11.022;2023-11-19T06:40:12;16.70;74.90
28837;DHT22;50669;50.982;11.022;2023-11-19T06:42:40;16.70;75.60
28837;DHT22;50669;50.982;11.022;2023-11-19T06:45:10;16.70;74.90
28837;DHT22;50669;50.982;11.022;2023-11-19T06:47:36;16.70;74.90
28837;DHT22;50669;50.982;11.022;2023-11-19T06:50:02;16.80;74.90
28837;DHT22;50669;50.982;11.022;2023-11-19T06:52:31;16.70;74.90
28837;DHT22;50669;50.982;11.022;2023-11-19T06:54:56;16.70;74.80
28837;DHT22;50669;50.982;11.022;2023-11-19T06:57:24;16.70;74.90
28837;DHT22;50669;50.982;11.022;2023-11-19T06:59:53;16.80;74.90
28837;DHT22;50669;50.982;11.022;2023-11-19T07:02:19;16.70;74.90
28837;DHT22;50669;50.982;11.022;2023-11-19T07:04:45;16.70;74.80
28837;DHT22;50669;50.982;11.022;2023-11-19T07:07:10;16.70;74.90
28837;DHT22;50669;50.982;11.022;2023-11-19T07:09:40;16.70;74.90
28837;DHT22;50669;50.982;11.022;2023-11-19T07:12:06;16.70;74.80
28837;DHT22;50669;50.982;11.022;2023-11-19T07:14:31;16.70;74.90
28837;DHT22;50669;50.982;11.022;2023-11-19T07:16:57;16.70;74.90
28837;DHT22;50669;50.982;11.022;2023-11-19T07:19:25;16.80;75.00
28837;DHT22;50669;50.982;11.022;2023-11-19T07:21:51;16.70;74.90
28837;DHT22;50669;50.982;11.022;2023-11-19T07:24:20;16.70;74.80
28837;DHT22;50669;50.982;11.022;2023-11-19T07:26:47;16.70;74.80
28837;DHT22;50669;50.982;11.022;2023-11-19T07:29:16;16.70;74.90
28837;DHT22;50669;50.982;11.022;2023-11-19T07:31:44;16.70;74.80
28837;DHT22;50669;50.982;11.022;2023-11-19T07:34:10;16.70;74.90
28837;DHT22;50669;50.982;11.022;2023-11-19T07:36:37;16.80;75.00
28837;DHT22;50669;50.982;11.022;2023-11-19T07:39:04;16.70;74.80
28837;DHT22;50669;50.982;11.022;2023-11-19T07:41:33;16.70;74.90
28837;DHT22;50669;50.982;11.022;2023-11-19T07:44:02;16.70;74.90
28837;DHT22;50669;50.982;11.022;2023-11-19T07:46:30;16.70;74.80
28837;DHT22;50669;50.982;11.022;2023-11-19T07:48:57;16.70;74.80
28837;DHT22;50669;50.982;11.022;2023-11-19T07:51:25;16.70;74.90
28837;DHT22;50669;50.982;11.022;2023-11-19T07:53:51;16.70;74.70
28837;DHT22;50669;50.982;11.022;2023-11-19T07:56:16;16.80;74.90
28837;DHT22;50669;50.982;11.022;2023-11-19T07:58:44;16.70;74.80
28837;DHT22;50669;50.982;11.022;2023-11-19T08:01:10;16.70;74.80
28837;DHT22;50669;50.982;11.022;2023-11-19T08:03:40;16.70;74.80
28837;DHT22;50669;50.982;11.022;2023-11-19T08:06:06;16.70;74.70
28837;DHT22;50669;50.982;11.022;2023-11-19T08:08:34;16.80;74.80
28837;DHT22;50669;50.982;11.022;2023-11-19T08:11:01;16.70;74.70
28837;DHT22;50669;50.982;11.022;2023-11-19T08:13:26;16.80;74.80
28837;DHT22;50669;50.982;11.022;2023-11-19T08:15:52;16.80;74.80
28837;DHT22;50669;50.982;11.022;2023-11-19T08:18:18;16.70;74.70
28837;DHT22;50669;50.982;11.022;2023-11-19T08:20:48;16.80;74.80
28837;DHT22;50669;50.982;11.022;2023-11-19T08:23:18;16.80;74.80
28837;DHT22;50669;50.982;11.022;2023-11-19T08:25:43;16.80;74.80
28837;DHT22;50669;50.982;11.022;2023-11-19T08:28:12;16.70;74.70
28837;DHT22;50669;50.982;11.022;2023-11-19T08:30:40;16.70;74.70
28837;DHT22;50669;50.982;11.022;2023-11-19T08:33:08;16.70;74.70
28837;DHT22;50669;50.982;11.022;2023-11-19T08:35:36;16.80;74.80
28837;DHT22;50669;50.982;11.022;2023-11-19T08:38:05;16.70;74.70
28837;DHT22;50669;50.982;11.022;2023-11-19T08:40:33;16.70;74.70
28837;DHT22;50669;50.982;11.022;2023-11-19T08:42:58;16.80;74.80
28837;DHT22;50669;50.982;11.022;2023-11-19T08:45:25;16.70;74.70
28837;DHT22;50669;50.982;11.022;2023-11-19T08:47:50;16.70;74.70
28837;DHT22;50669;50.982;11.022;2023-11-19T08:50:18;16.80;74.80
28837;DHT22;50669;50.982;11.022;2023-11-19T08:52:44;16.70;74.70
28837;DHT22;50669;50.982;11.022;2023-11-19T08:55:10;16.80;74.80
28837;DHT22;50669;50.982;11.022;2023-11-19T08:57:37;16.80;74.80
28837;DHT22;50669;50.982;11.022;2023-11-19T09:00:05;16.80;74.80
28837;DHT22;50669;50.982;11.022;2023-11-19T09:02:34;16.80;74.80
28837;DHT22;50669;50.982;11.022;2023-11-19T09:05:00;16.80;74.70
28837;DHT22;50669;50.982;11.022;2023-11-19T09:07:31;16.80;74.80
28837;DHT22;50669;50.982;11.022;2023-11-19T09:09:56;16.80;74.70
28837;DHT22;50669;50.982;11.022;2023-11-19T09:12:27;16.80;74.80
28837;DHT22;50669;50.982;11.022;2023-11-19T09:14:55;16.80;74.70
28837;DHT22;50669;50.982;11.022;2023-11-19T09:17:23;16.80;74.70
28837;DHT22;50669;50.982;11.022;2023-11-19T09:19:51;16.80;74.80
28837;DHT22;50669;50.982;11.022;2023-11-19T09:22:17;16.80;74.70
28837;DHT22;50669;50.982;11.022;2023-11-19T09:24:42;16.80;74.80
28837;DHT22;50669;50.982;11.022;2023-11-19T09:27:12;16.80;74.70
28837;DHT22;50669;50.982;11.022;2023-11-19T09:29:40;16.80;74.80
28837;DHT22;50669;50.982;11.022;2023-11-19T09:32:08;16.80;74.70
28837;DHT22;50669;50.982;11.022;2023-11-19T09:34:34;16.80;74.80
28837;DHT22;50669;50.982;11.022;2023-11-19T09:36:59;16.80;74.80
28837;DHT22;50669;50.982;11.022;2023-11-19T09:39:25;16.80;74.80
28837;DHT22;50669;50.982;11.022;2023-11-19T09:41:51;16.80;74.80
28837;DHT22;50669;50.982;11.022;2023-11-19T09:44:17;16.80;74.80
28837;DHT22;50669;50.982;11.022;2023-11-19T09:46:47;16.80;74.80
28837;DHT22;50669;50.982;11.022;2023-11-19T09:49:14;16.80;75.50
28837;DHT22;50669;50.982;11.022;2023-11-19T09:51:44;16.80;74.80
28837;DHT22;50669;50.982;11.022;2023-11-19T09:54:09;16.80;74.80
28837;DHT22;50669;50.982;11.022;2023-11-19T09:56:39;16.80;74.80
28837;DHT22;50669;50.982;11.022;2023-11-19T09:59:05;16.80;74.80
28837;DHT22;50669;50.982;11.022;2023-11-19T10:01:30;16.80;74.80
28837;DHT22;50669;50.982;11.022;2023-11-19T10:03:57;16.80;74.80
28837;DHT22;50669;50.982;11.022;2023-11-19T10:06:26;16.80;74.80
28837;DHT22;50669;50.982;11.022;2023-11-19T10:08:52;16.80;74.80
28837;DHT22;50669;50.982;11.022;2023-11-19T10:11:20;16.80;74.80
28837;DHT22;50669;50.982;11.022;2023-11-19T10:13:46;16.80;74.80
28837;DHT22;50669;50.982;11.022;2023-11-19T10:16:13;16.80;74.70
28837;DHT22;50669;50.982;11.022;2023-11-19T10:18:47;16.80;74.80
28837;DHT22;50669;50.982;11.022;2023-11-19T10:21:18;16.80;74.70
28837;DHT22;50669;50.982;11.022;2023-11-19T10:23:52;16.80;74.80
28837;DHT22;50669;50.982;11.022;2023-11-19T10:26:18;16.80;74.70
28837;DHT22;50669;50.982;11.022;2023-11-19T10:28:46;16.80;74.70
28837;DHT22;50669;50.982;11.022;2023-11-19T10:31:16;16.80;74.70
28837;DHT22;50669;50.982;11.022;2023-11-19T10:33:43;16.80;74.70
28837;DHT22;50669;50.982;11.022;2023-11-19T10:36:12;16.90;74.70
28837;DHT22;50669;50.982;11.022;2023-11-19T10:38:39;16.80;74.70
28837;DHT22;50669;50.982;11.022;2023-11-19T10:41:06;16.80;74.70
28837;DHT22;50669;50.982;11.022;2023-11-19T10:43:42;16.90;74.70
28837;DHT22;50669;50.982;11.022;2023-11-19T10:46:16;16.90;74.60
28837;DHT22;50669;50.982;11.022;2023-11-19T10:48:46;16.90;74.60
28837;DHT22;50669;50.982;11.022;2023-11-19T10:51:13;16.90;74.50
28837;DHT22;50669;50.982;11.022;2023-11-19T10:53:49;16.90;74.50
28837;DHT22;50669;50.982;11.022;2023-11-19T10:56:20;17.00;74.50
28837;DHT22;50669;50.982;11.022;2023-11-19T10:58:51;17.00;74.50
28837;DHT22;50669;50.982;11.022;2023-11-19T11:01:22;17.00;74.40
28837;DHT22;50669;50.982;11.022;2023-11-19T11:03:53;17.00;74.40
28837;DHT22;50669;50.982;11.022;2023-11-19T11:06:20;17.00;74.40
28837;DHT22;50669;50.982;11.022;2023-11-19T11:08:48;17.00;74.20
28837;DHT22;50669;50.982;11.022;2023-11-19T11:11:18;17.00;74.40
28837;DHT22;50669;50.982;11.022;2023-11-19T11:13:47;17.10;74.30
28837;DHT22;50669;50.982;11.022;2023-11-19T11:16:15;17.10;74.30
28837;DHT22;50669;50.982;11.022;2023-11-19T11:18:45;17.00;74.20
28837;DHT22;50669;50.982;11.022;2023-11-19T11:21:14;17.10;74.30
28837;DHT22;50669;50.982;11.022;2023-11-19T11:24:06;17.10;74.30
28837;DHT22;50669;50.982;11.022;2023-11-19T11:27:11;17.10;74.30
28837;DHT22;50669;50.982;11.022;2023-11-19T11:32:37;17.00;74.30
28837;DHT22;50669;50.982;11.022;2023-11-19T11:38:10;17.00;74.40
28837;DHT22;50669;50.982;11.022;2023-11-19T11:40:36;17.00;74.30
28837;DHT22;50669;50.982;11.022;2023-11-19T11:43:04;17.00;74.40
28837;DHT22;50669;50.982;11.022;2023-11-19T11:45:52;17.00;74.40
28837;DHT22;50669;50.982;11.022;2023-11-19T11:48:22;17.00;74.50
28837;DHT22;50669;50.982;11.022;2023-11-19T11:50:52;17.00;74.40
28837;DHT22;50669;50.982;11.022;2023-11-19T11:53:22;17.00;74.40
28837;DHT22;50669;50.982;11.022;2023-11-19T11:58:20;17.00;74.40
28837;DHT22;50669;50.982;11.022;2023-11-19T12:00:47;17.10;74.40
28837;DHT22;50669;50.982;11.022;2023-11-19T12:03:20;17.10;74.30
28837;DHT22;50669;50.982;11.022;2023-11-19T12:05:49;17.20;74.30
28837;DHT22;50669;50.982;11.022;2023-11-19T12:08:19;17.20;74.20
28837;DHT22;50669;50.982;11.022;2023-11-19T12:10:55;17.20;74.10
28837;DHT22;50669;50.982;11.022;2023-11-19T12:13:29;17.30;74.00
28837;DHT22;50669;50.982;11.022;2023-11-19T12:16:08;17.30;73.90
28837;DHT22;50669;50.982;11.022;2023-11-19T12:18:34;17.30;73.70
28837;DHT22;50669;50.982;11.022;2023-11-19T12:21:01;17.30;73.70
28837;DHT22;50669;50.982;11.022;2023-11-19T12:23:29;17.30;73.70
28837;DHT22;50669;50.982;11.022;2023-11-19T12:25:55;17.40;73.70
28837;DHT22;50669;50.982;11.022;2023-11-19T12:28:21;17.40;73.60
28837;DHT22;50669;50.982;11.022;2023-11-19T12:30:48;17.40;73.60
28837;DHT22;50669;50.982;11.022;2023-11-19T12:33:16;17.40;73.70
28837;DHT22;50669;50.982;11.022;2023-11-19T12:35:46;17.30;73.70
28837;DHT22;50669;50.982;11.022;2023-11-19T12:38:22;17.30;74.50
28837;DHT22;50669;50.982;11.022;2023-11-19T12:41:08;17.30;73.90
28837;DHT22;50669;50.982;11.022;2023-11-19T12:43:35;17.30;73.90
28837;DHT22;50669;50.982;11.022;2023-11-19T12:46:17;17.30;74.00
28837;DHT22;50669;50.982;11.022;2023-11-19T12:48:43;17.30;74.00
28837;DHT22;50669;50.982;11.022;2023-11-19T12:51:09;17.20;74.00
28837;DHT22;50669;50.982;11.022;2023-11-19T12:53:53;17.30;74.10
28837;DHT22;50669;50.982;11.022;2023-11-19T12:56:24;17.20;74.00
28837;DHT22;50669;50.982;11.022;2023-11-19T12:58:49;17.20;74.00
28837;DHT22;50669;50.982;11.022;2023-11-19T13:01:19;17.20;74.10
28837;DHT22;50669;50.982;11.022;2023-11-19T13:03:48;17.20;74.10
28837;DHT22;50669;50.982;11.022;2023-11-19T13:06:16;17.20;74.10
28837;DHT22;50669;50.982;11.022;2023-11-19T13:08:48;17.20;74.10
28837;DHT22;50669;50.982;11.022;2023-11-19T13:11:38;17.20;74.10
28837;DHT22;50669;50.982;11.022;2023-11-19T13:14:06;17.20;74.20
28837;DHT22;50669;50.982;11.022;2023-11-19T13:16:37;17.20;74.20
28837;DHT22;50669;50.982;11.022;2023-11-19T13:19:06;17.20;74.20
28837;DHT22;50669;50.982;11.022;2023-11-19T13:21:32;17.20;74.20
28837;DHT22;50669;50.982;11.022;2023-11-19T13:24:00;17.20;74.20
28837;DHT22;50669;50.982;11.022;2023-11-19T13:26:26;17.20;74.20
28837;DHT22;50669;50.982;11.022;2023-11-19T13:28:51;17.20;74.30
28837;DHT22;50669;50.982;11.022;2023-11-19T13:31:19;17.20;74.20
28837;DHT22;50669;50.982;11.022;2023-11-19T13:33:47;17.20;74.30
28837;DHT22;50669;50.982;11.022;2023-11-19T13:36:15;17.20;74.30
28837;DHT22;50669;50.982;11.022;2023-11-19T13:38:43;17.20;74.30
28837;DHT22;50669;50.982;11.022;2023-11-19T13:41:14;17.20;74.30
28837;DHT22;50669;50.982;11.022;2023-11-19T13:43:40;17.20;74.30
28837;DHT22;50669;50.982;11.022;2023-11-19T13:46:08;17.20;74.30
28837;DHT22;50669;50.982;11.022;2023-11-19T13:48:37;17.20;74.30
28837;DHT22;50669;50.982;11.022;2023-11-19T13:51:05;17.20;74.40
28837;DHT22;50669;50.982;11.022;2023-11-19T13:53:33;17.20;74.40
28837;DHT22;50669;50.982;11.022;2023-11-19T13:55:59;17.20;74.50
28837;DHT22;50669;50.982;11.022;2023-11-19T13:58:24;17.20;74.50
28837;DHT22;50669;50.982;11.022;2023-11-19T14:00:50;17.20;74.60
28837;DHT22;50669;50.982;11.022;2023-11-19T14:03:18;17.20;74.70
28837;DHT22;50669;50.982;11.022;2023-11-19T14:05:44;17.20;74.60
28837;DHT22;50669;50.982;11.022;2023-11-19T14:08:12;17.20;74.50
28837;DHT22;50669;50.982;11.022;2023-11-19T14:10:43;17.20;74.60
28837;DHT22;50669;50.982;11.022;2023-11-19T14:13:08;17.20;74.60
28837;DHT22;50669;50.982;11.022;2023-11-19T14:15:37;17.20;74.60
28837;DHT22;50669;50.982;11.022;2023-11-19T14:18:02;17.20;74.50
28837;DHT22;50669;50.982;11.022;2023-11-19T14:20:28;17.20;74.60
28837;DHT22;50669;50.982;11.022;2023-11-19T14:22:54;17.20;74.60
28837;DHT22;50669;50.982;11.022;2023-11-19T14:25:22;17.20;74.60
28837;DHT22;50669;50.982;11.022;2023-11-19T14:27:49;17.20;74.60
28837;DHT22;50669;50.982;11.022;2023-11-19T14:30:14;17.20;74.60
28837;DHT22;50669;50.982;11.022;2023-11-19T14:32:41;17.20;74.50
28837;DHT22;50669;50.982;11.022;2023-11-19T14:35:09;17.20;74.50
28837;DHT22;50669;50.982;11.022;2023-11-19T14:37:37;17.20;74.40
28837;DHT22;50669;50.982;11.022;2023-11-19T14:40:03;17.20;74.40
28837;DHT22;50669;50.982;11.022;2023-11-19T14:42:33;17.20;74.40
28837;DHT22;50669;50.982;11.022;2023-11-19T14:45:01;17.20;74.40
28837;DHT22;50669;50.982;11.022;2023-11-19T14:47:27;17.20;74.40
28837;DHT22;50669;50.982;11.022;2023-11-19T14:49:52;17.20;74.40
28837;DHT22;50669;50.982;11.022;2023-11-19T14:52:18;17.10;74.40
28837;DHT22;50669;50.982;11.022;2023-11-19T14:54:45;17.20;74.40
28837;DHT22;50669;50.982;11.022;2023-11-19T14:57:13;17.20;74.50
28837;DHT22;50669;50.982;11.022;2023-11-19T14:59:40;17.20;74.40
28837;DHT22;50669;50.982;11.022;2023-11-19T15:02:06;17.10;74.30
28837;DHT22;50669;50.982;11.022;2023-11-19T15:04:34;17.20;74.50
28837;DHT22;50669;50.982;11.022;2023-11-19T15:07:02;17.20;74.50
28837;DHT22;50669;50.982;11.022;2023-11-19T15:09:29;17.20;74.50
28837;DHT22;50669;50.982;11.022;2023-11-19T15:11:55;17.10;74.40
28837;DHT22;50669;50.982;11.022;2023-11-19T15:14:23;17.10;74.40
28837;DHT22;50669;50.982;11.022;2023-11-19T15:16:49;17.10;74.40
28837;DHT22;50669;50.982;11.022;2023-11-19T15:19:17;17.10;74.40
28837;DHT22;50669;50.982;11.022;2023-11-19T15:21:42;17.10;74.40
28837;DHT22;50669;50.982;11.022;2023-11-19T15:24:08;17.10;74.50
28837;DHT22;50669;50.982;11.022;2023-11-19T15:26:37;17.10;74.40
28837;DHT22;50669;50.982;11.022;2023-11-19T15:29:05;17.10;74.40